Black River, Minnesota
Current Conditions -  °F | °C
As of 10:55 PM on Wednesday 26 Nov 2014 (Local Time) from KINL Reporting Station
Clear Clear  
Wind Chill: -24°   Ceiling: Unl
Heat Index: -9°   Visibility: 10mi
Dew Point: -13°   Wind: 7mph
Humidity: 83%   Direction: 330°NNW
Pressure: 30.42"   Gusts: NA
Location:  48.5075°N, 93.9033°W
Report Text: KINL 270455Z AUTO 33006KT 10SM CLR M23/M25 A3042 RMK AO2 SLP341 T12281250 $
Loading
Personal Weather Stations






























Interactive Weather Map New forecast layout! Learn more

10-Day Weather Forecast

Advertisements
Track Severe Weather on mobile